createdAt,value
2023-02-11T00:00:55.327Z,2.90
2023-02-11T00:03:22.269Z,2.90
2023-02-11T00:05:57.628Z,2.80
2023-02-11T00:08:24.488Z,2.80
2023-02-11T00:10:52.516Z,2.80
2023-02-11T00:13:19.344Z,2.80
2023-02-11T00:15:46.169Z,2.80
2023-02-11T00:18:14.443Z,2.70
2023-02-11T00:20:41.865Z,2.70
2023-02-11T00:23:08.930Z,2.80
2023-02-11T00:25:39.594Z,2.70
2023-02-11T00:28:06.522Z,2.80
2023-02-11T00:30:33.724Z,2.80
2023-02-11T00:33:00.662Z,2.80
2023-02-11T00:35:29.250Z,2.90
2023-02-11T00:37:56.719Z,2.70
2023-02-11T00:40:24.629Z,2.70
2023-02-11T00:42:51.579Z,2.70
2023-02-11T00:45:20.785Z,2.70
2023-02-11T00:47:47.835Z,2.60
2023-02-11T00:50:14.850Z,2.60
2023-02-11T00:52:43.068Z,2.60
2023-02-11T00:55:09.955Z,2.60
2023-02-11T00:57:37.149Z,2.70
2023-02-11T01:00:05.651Z,2.70
2023-02-11T01:02:32.890Z,2.80
2023-02-11T01:05:00.118Z,2.80
2023-02-11T01:07:27.508Z,2.80
2023-02-11T01:09:55.943Z,2.80
2023-02-11T01:12:23.158Z,2.90
2023-02-11T01:14:50.034Z,2.90
2023-02-11T01:17:16.909Z,2.90
2023-02-11T01:19:43.781Z,2.90
2023-02-11T01:22:10.661Z,3.00
2023-02-11T01:24:37.533Z,3.00
2023-02-11T01:27:05.741Z,3.00
2023-02-11T01:29:32.659Z,3.00
2023-02-11T01:32:00.387Z,3.10
2023-02-11T01:34:27.352Z,3.10
2023-02-11T01:36:57.647Z,3.10
2023-02-11T01:39:24.512Z,3.20
2023-02-11T01:41:51.499Z,3.20
2023-02-11T01:44:26.256Z,3.20
2023-02-11T01:46:54.171Z,3.20
2023-02-11T01:49:25.341Z,3.20
2023-02-11T01:51:56.732Z,3.30
2023-02-11T01:54:46.477Z,3.20
2023-02-11T01:57:22.418Z,3.20
2023-02-11T02:00:02.034Z,3.20
2023-02-11T02:02:34.531Z,3.20
2023-02-11T02:05:07.126Z,3.20
2023-02-11T02:07:38.958Z,3.20
2023-02-11T02:10:11.324Z,3.20
2023-02-11T02:12:38.275Z,3.20
2023-02-11T02:15:19.799Z,3.20
2023-02-11T02:17:57.582Z,3.20
2023-02-11T02:21:07.169Z,3.20
2023-02-11T02:24:03.415Z,3.30
2023-02-11T02:27:11.286Z,3.30
2023-02-11T02:30:11.212Z,3.30
2023-02-11T02:32:49.605Z,3.20
2023-02-11T02:35:30.048Z,3.20
2023-02-11T02:38:03.185Z,3.10
2023-02-11T02:40:33.434Z,3.00
2023-02-11T02:43:02.186Z,3.00
2023-02-11T02:45:29.224Z,2.90
2023-02-11T02:47:58.339Z,2.90
2023-02-11T02:50:32.457Z,2.90
2023-02-11T02:53:12.176Z,2.80
2023-02-11T02:55:52.711Z,2.80
2023-02-11T02:58:34.294Z,2.80
2023-02-11T03:01:08.568Z,2.70
2023-02-11T03:03:46.827Z,2.70
2023-02-11T03:06:22.563Z,2.70
2023-02-11T03:08:55.071Z,2.70
2023-02-11T03:11:23.046Z,2.80
2023-02-11T03:13:51.735Z,2.80
2023-02-11T03:16:22.876Z,2.90
2023-02-11T03:18:56.417Z,2.90
2023-02-11T03:21:25.219Z,3.00
2023-02-11T03:23:56.370Z,3.00
2023-02-11T03:26:29.503Z,3.00
2023-02-11T03:29:03.406Z,3.00
2023-02-11T03:31:35.855Z,3.10
2023-02-11T03:34:08.739Z,3.10
2023-02-11T03:36:45.903Z,3.20
2023-02-11T03:39:14.611Z,3.20
2023-02-11T03:41:43.528Z,3.20
2023-02-11T03:44:12.618Z,3.20
2023-02-11T03:46:41.899Z,3.20
2023-02-11T03:49:13.500Z,3.20
2023-02-11T03:51:41.004Z,3.20
2023-02-11T03:54:14.184Z,3.20
2023-02-11T03:56:46.000Z,3.20
2023-02-11T03:59:12.909Z,3.20
2023-02-11T04:01:39.765Z,3.20
2023-02-11T04:04:06.661Z,3.20
2023-02-11T04:06:34.844Z,3.10
2023-02-11T04:09:01.791Z,3.00
2023-02-11T04:11:28.676Z,3.00
2023-02-11T04:13:55.511Z,3.00
2023-02-11T04:16:22.550Z,2.90
2023-02-11T04:18:49.708Z,2.90
2023-02-11T04:21:16.635Z,2.90
2023-02-11T04:23:44.874Z,2.90
2023-02-11T04:26:11.746Z,2.90
2023-02-11T04:28:38.632Z,2.90
2023-02-11T04:31:05.799Z,2.90
2023-02-11T04:33:32.708Z,2.90
2023-02-11T04:35:59.532Z,2.90
2023-02-11T04:38:26.476Z,2.90
2023-02-11T04:40:54.754Z,2.90
2023-02-11T04:43:21.557Z,2.90
2023-02-11T04:45:48.865Z,2.90
2023-02-11T04:48:15.954Z,2.90
2023-02-11T04:50:42.852Z,3.00
2023-02-11T04:53:09.678Z,3.00
2023-02-11T04:55:36.641Z,3.00
2023-02-11T04:58:04.811Z,3.10
2023-02-11T05:00:31.606Z,3.10
2023-02-11T05:02:58.496Z,3.10
2023-02-11T05:05:25.350Z,3.10
2023-02-11T05:07:52.286Z,3.10
2023-02-11T05:10:19.331Z,3.10
2023-02-11T05:12:48.198Z,3.10
2023-02-11T05:15:16.439Z,3.10
2023-02-11T05:17:43.255Z,3.10
2023-02-11T05:20:10.979Z,3.00
2023-02-11T05:22:37.851Z,3.00
2023-02-11T05:25:05.504Z,3.00
2023-02-11T05:27:32.352Z,3.00
2023-02-11T05:29:59.194Z,3.00
2023-02-11T05:32:29.342Z,2.90
2023-02-11T05:34:56.154Z,2.90
2023-02-11T05:37:23.101Z,2.90
2023-02-11T05:39:50.044Z,2.90
2023-02-11T05:42:16.900Z,3.00
2023-02-11T05:44:43.824Z,3.00
2023-02-11T05:47:10.622Z,3.00
2023-02-11T05:49:38.824Z,3.10
2023-02-11T05:52:05.873Z,3.10
2023-02-11T05:54:32.733Z,3.20
2023-02-11T05:56:59.584Z,3.20
2023-02-11T05:59:26.470Z,3.30
2023-02-11T06:01:53.349Z,3.30
2023-02-11T06:04:20.180Z,3.40
2023-02-11T06:06:48.383Z,3.40
2023-02-11T06:09:15.268Z,3.40
2023-02-11T06:11:42.134Z,3.40
2023-02-11T06:14:09.905Z,3.30
2023-02-11T06:16:36.974Z,3.30
2023-02-11T06:19:04.061Z,3.20
2023-02-11T06:21:43.037Z,3.20
2023-02-11T06:24:12.812Z,3.20
2023-02-11T06:26:39.855Z,3.20
2023-02-11T06:29:06.740Z,3.20
2023-02-11T06:31:33.627Z,3.20
2023-02-11T06:34:01.085Z,3.20
2023-02-11T06:36:27.983Z,3.10
2023-02-11T06:38:55.659Z,3.10
2023-02-11T06:41:23.967Z,3.00
2023-02-11T06:43:52.207Z,3.00
2023-02-11T06:46:19.178Z,2.90
2023-02-11T06:48:46.258Z,2.90
2023-02-11T06:51:14.209Z,2.90
2023-02-11T06:53:43.419Z,2.90
2023-02-11T06:56:12.267Z,2.90
2023-02-11T06:58:40.710Z,2.80
2023-02-11T07:01:09.211Z,2.70
2023-02-11T07:03:37.767Z,2.70
2023-02-11T07:06:06.138Z,2.60
2023-02-11T07:08:33.484Z,2.60
2023-02-11T07:11:00.899Z,2.50
2023-02-11T07:13:27.933Z,2.50
2023-02-11T07:15:56.189Z,2.50
2023-02-11T07:18:22.997Z,2.60
2023-02-11T07:20:49.851Z,2.60
2023-02-11T07:23:16.705Z,2.60
2023-02-11T07:25:43.474Z,2.60
2023-02-11T07:28:10.381Z,2.60
2023-02-11T07:30:37.256Z,2.60
2023-02-11T07:33:05.492Z,2.60
2023-02-11T07:35:32.304Z,2.60
2023-02-11T07:37:59.228Z,2.70
2023-02-11T07:40:26.115Z,2.70
2023-02-11T07:42:52.936Z,2.80
2023-02-11T07:45:19.818Z,2.90
2023-02-11T07:47:46.672Z,3.20
2023-02-11T07:50:16.556Z,3.40
2023-02-11T07:52:43.484Z,3.60
2023-02-11T07:55:10.379Z,3.80
2023-02-11T07:57:37.381Z,3.80
2023-02-11T08:00:05.613Z,3.80
2023-02-11T08:02:32.595Z,3.80
2023-02-11T08:04:59.458Z,3.80
2023-02-11T08:07:29.653Z,3.80
2023-02-11T08:09:56.584Z,3.90
2023-02-11T08:12:23.369Z,3.90
2023-02-11T08:14:50.172Z,4.00
2023-02-11T08:17:17.158Z,4.10
2023-02-11T08:19:44.226Z,4.10
2023-02-11T08:22:11.048Z,4.20
2023-02-11T08:24:39.233Z,4.30
2023-02-11T08:27:06.101Z,4.40
2023-02-11T08:29:32.923Z,4.40
2023-02-11T08:31:59.814Z,4.60
2023-02-11T08:34:26.712Z,4.70
2023-02-11T08:36:54.128Z,4.80
2023-02-11T08:39:22.590Z,4.90
2023-02-11T08:41:52.431Z,4.80
2023-02-11T08:44:20.436Z,4.70
2023-02-11T08:46:48.307Z,4.60
2023-02-11T08:49:15.720Z,4.50
2023-02-11T08:51:43.239Z,4.40
2023-02-11T08:54:10.399Z,4.30
2023-02-11T08:56:37.440Z,4.30
2023-02-11T08:59:06.073Z,4.20
2023-02-11T09:01:33.816Z,4.20
2023-02-11T09:04:01.221Z,4.30
2023-02-11T09:06:28.710Z,4.30
2023-02-11T09:08:57.658Z,4.40
2023-02-11T09:11:28.316Z,4.50
2023-02-11T09:13:55.278Z,4.60
2023-02-11T09:16:26.030Z,4.60
2023-02-11T09:18:53.492Z,4.70
2023-02-11T09:21:20.778Z,4.70
2023-02-11T09:23:47.951Z,4.80
2023-02-11T09:26:16.992Z,4.80
2023-02-11T09:28:44.392Z,4.60
2023-02-11T09:31:13.648Z,4.90
2023-02-11T09:33:47.787Z,5.00
2023-02-11T09:36:16.002Z,5.00
2023-02-11T09:38:43.037Z,5.00
2023-02-11T09:41:49.707Z,5.00
2023-02-11T09:44:22.925Z,5.00
2023-02-11T09:46:55.874Z,5.00
2023-02-11T09:49:32.394Z,5.00
2023-02-11T09:52:05.049Z,4.90
2023-02-11T09:54:36.912Z,4.90
2023-02-11T09:57:06.196Z,4.90
2023-02-11T09:59:33.178Z,5.00
2023-02-11T10:02:06.129Z,5.00
2023-02-11T10:04:47.608Z,5.00
2023-02-11T10:07:25.340Z,5.10
2023-02-11T10:10:08.460Z,5.10
2023-02-11T10:12:59.544Z,5.20
2023-02-11T10:15:34.759Z,5.20
2023-02-11T10:18:16.109Z,5.20
2023-02-11T10:20:52.556Z,5.20
2023-02-11T10:23:24.680Z,5.20
2023-02-11T10:25:56.294Z,5.20
2023-02-11T10:28:28.646Z,5.20
2023-02-11T10:30:59.425Z,5.20
2023-02-11T10:33:30.439Z,5.20
2023-02-11T10:35:58.971Z,5.30
2023-02-11T10:38:26.413Z,5.30
2023-02-11T10:40:53.581Z,5.30
2023-02-11T10:43:24.512Z,5.30
2023-02-11T10:45:52.989Z,5.40
2023-02-11T10:48:41.505Z,5.50
2023-02-11T10:51:17.538Z,5.50
2023-02-11T10:53:44.674Z,5.60
2023-02-11T10:56:14.298Z,5.70
2023-02-11T10:58:45.104Z,5.70
2023-02-11T11:01:23.943Z,5.80
2023-02-11T11:03:52.629Z,5.90
2023-02-11T11:06:31.869Z,6.00
2023-02-11T11:08:59.511Z,6.10
2023-02-11T11:11:26.956Z,6.20
2023-02-11T11:13:59.221Z,6.20
2023-02-11T11:16:27.931Z,6.30
2023-02-11T11:19:20.395Z,6.30
2023-02-11T11:21:51.489Z,6.40
2023-02-11T11:24:20.947Z,6.40
2023-02-11T11:26:54.959Z,6.50
2023-02-11T11:29:30.530Z,6.50
2023-02-11T11:32:01.356Z,6.50
2023-02-11T11:34:31.696Z,6.60
2023-02-11T11:37:02.005Z,6.60
2023-02-11T11:39:31.663Z,6.60
2023-02-11T11:42:00.367Z,6.60
2023-02-11T11:44:30.804Z,6.70
2023-02-11T11:47:25.505Z,6.80
2023-02-11T11:50:21.210Z,6.80
2023-02-11T11:52:56.463Z,6.80
2023-02-11T11:55:27.026Z,6.80
2023-02-11T11:57:54.013Z,6.90
2023-02-11T12:00:26.440Z,6.90
2023-02-11T12:03:16.745Z,7.00
2023-02-11T12:05:51.021Z,7.10
2023-02-11T12:08:30.379Z,7.10
2023-02-11T12:11:09.476Z,7.20
2023-02-11T12:13:48.829Z,7.20
2023-02-11T12:16:30.691Z,7.30
2023-02-11T12:19:24.777Z,7.40
2023-02-11T12:21:58.385Z,7.40
2023-02-11T12:24:48.316Z,7.30
2023-02-11T12:27:21.482Z,7.30
2023-02-11T12:30:01.440Z,7.30
2023-02-11T12:32:37.454Z,7.20
2023-02-11T12:35:21.000Z,7.20
2023-02-11T12:38:32.290Z,7.20
2023-02-11T12:41:15.121Z,7.20
2023-02-11T12:43:44.397Z,7.20
2023-02-11T12:46:31.132Z,7.20
2023-02-11T12:49:26.667Z,7.20
2023-02-11T12:52:12.025Z,7.30
2023-02-11T12:54:43.790Z,7.40
2023-02-11T12:57:18.110Z,7.40
2023-02-11T12:59:51.131Z,7.50
2023-02-11T13:02:27.575Z,7.50
2023-02-11T13:04:57.214Z,7.60
2023-02-11T13:07:31.196Z,7.60
2023-02-11T13:10:02.695Z,7.60
2023-02-11T13:12:52.024Z,7.60
2023-02-11T13:15:18.879Z,7.70
2023-02-11T13:17:54.685Z,7.70
2023-02-11T13:20:32.665Z,7.60
2023-02-11T13:23:07.698Z,7.70
2023-02-11T13:25:43.145Z,7.70
2023-02-11T13:28:36.743Z,7.70
2023-02-11T13:31:07.065Z,7.70
2023-02-11T13:33:36.132Z,7.70
2023-02-11T13:36:32.878Z,7.70
2023-02-11T13:39:02.524Z,7.70
2023-02-11T13:41:36.680Z,7.70
2023-02-11T13:44:22.318Z,7.70
2023-02-11T13:47:01.472Z,7.70
2023-02-11T13:49:35.217Z,7.70
2023-02-11T13:52:04.958Z,7.70
2023-02-11T13:54:35.418Z,7.70
2023-02-11T13:57:30.083Z,7.70
2023-02-11T13:59:59.775Z,7.70
2023-02-11T14:02:49.751Z,7.70
2023-02-11T14:05:42.108Z,7.70
2023-02-11T14:08:42.673Z,7.80
2023-02-11T14:11:42.921Z,7.80
2023-02-11T14:14:23.812Z,7.70
2023-02-11T14:17:32.868Z,7.70
2023-02-11T14:20:02.260Z,7.70
2023-02-11T14:22:39.769Z,7.70
2023-02-11T14:25:18.565Z,7.70
2023-02-11T14:27:55.248Z,7.70
2023-02-11T14:30:44.734Z,7.70
2023-02-11T14:33:39.098Z,7.70
2023-02-11T14:36:23.048Z,7.80
2023-02-11T14:39:09.469Z,7.80
2023-02-11T14:41:41.551Z,7.90
2023-02-11T14:46:48.860Z,7.90
2023-02-11T14:49:25.356Z,7.90
2023-02-11T14:51:54.405Z,7.90
2023-02-11T14:54:25.252Z,7.90
2023-02-11T14:57:12.260Z,7.90
2023-02-11T14:59:40.057Z,7.90
2023-02-11T15:02:21.436Z,7.80
2023-02-11T15:04:49.767Z,7.80
2023-02-11T15:07:18.303Z,7.80
2023-02-11T15:09:48.060Z,7.80
2023-02-11T15:12:20.200Z,7.80
2023-02-11T15:14:49.569Z,7.80
2023-02-11T15:17:21.273Z,7.80
2023-02-11T15:19:53.220Z,7.80
2023-02-11T15:22:23.786Z,7.90
2023-02-11T15:24:59.435Z,7.90
2023-02-11T15:27:26.650Z,7.90
2023-02-11T15:29:53.743Z,7.90
2023-02-11T15:32:22.405Z,7.90
2023-02-11T15:34:52.733Z,7.90
2023-02-11T15:37:21.868Z,7.90
2023-02-11T15:39:49.187Z,7.90
2023-02-11T15:42:17.889Z,7.90
2023-02-11T15:44:45.404Z,8.00
2023-02-11T15:47:16.033Z,8.00
2023-02-11T15:49:45.415Z,8.10
2023-02-11T15:52:14.734Z,8.10
2023-02-11T15:54:46.419Z,8.20
2023-02-11T15:57:13.721Z,8.20
2023-02-11T15:59:45.866Z,8.20
2023-02-11T16:02:18.546Z,8.30
2023-02-11T16:04:50.845Z,8.30
2023-02-11T16:07:43.961Z,8.30
2023-02-11T16:10:19.533Z,8.30
2023-02-11T16:12:52.769Z,8.10
2023-02-11T16:15:44.474Z,8.20
2023-02-11T16:18:37.323Z,8.20
2023-02-11T16:21:06.996Z,8.10
2023-02-11T16:23:38.526Z,8.10
2023-02-11T16:26:08.895Z,8.10
2023-02-11T16:28:37.209Z,8.10
2023-02-11T16:31:05.125Z,8.10
2023-02-11T16:33:32.032Z,8.10
2023-02-11T16:36:02.038Z,8.10
2023-02-11T16:38:30.374Z,8.00
2023-02-11T16:40:58.525Z,8.00
2023-02-11T16:43:25.386Z,8.10
2023-02-11T16:45:52.722Z,8.10
2023-02-11T16:48:20.655Z,8.10
2023-02-11T16:50:51.527Z,8.10
2023-02-11T16:53:23.528Z,8.20
2023-02-11T16:55:51.244Z,8.20
2023-02-11T16:58:19.597Z,8.20
2023-02-11T17:00:48.325Z,8.20
2023-02-11T17:03:19.980Z,8.20
2023-02-11T17:05:55.357Z,8.10
2023-02-11T17:08:22.725Z,8.10
2023-02-11T17:10:50.208Z,8.10
2023-02-11T17:13:18.936Z,8.10
2023-02-11T17:15:45.866Z,8.10
2023-02-11T17:18:14.370Z,8.20
2023-02-11T17:20:41.809Z,8.20
2023-02-11T17:23:09.247Z,8.20
2023-02-11T17:25:39.304Z,8.30
2023-02-11T17:28:08.466Z,8.30
2023-02-11T17:30:38.904Z,8.30
2023-02-11T17:33:05.720Z,8.30
2023-02-11T17:35:32.664Z,8.40
2023-02-11T17:38:01.351Z,8.40
2023-02-11T17:40:28.352Z,8.40
2023-02-11T17:42:55.293Z,8.40
2023-02-11T17:45:22.606Z,8.30
2023-02-11T17:47:50.947Z,8.30
2023-02-11T17:50:18.205Z,8.20
2023-02-11T17:52:45.053Z,8.10
2023-02-11T17:55:11.878Z,8.10
2023-02-11T17:57:39.192Z,8.10
2023-02-11T18:00:07.873Z,8.10
2023-02-11T18:02:34.994Z,8.10
2023-02-11T18:05:03.511Z,8.10
2023-02-11T18:07:30.541Z,8.10
2023-02-11T18:09:57.448Z,8.10
2023-02-11T18:12:27.319Z,8.00
2023-02-11T18:14:57.848Z,8.00
2023-02-11T18:17:25.278Z,8.00
2023-02-11T18:19:55.930Z,8.00
2023-02-11T18:22:25.066Z,8.10
2023-02-11T18:24:52.920Z,8.10
2023-02-11T18:27:20.203Z,8.00
2023-02-11T18:29:47.253Z,8.00
2023-02-11T18:32:14.159Z,8.00
2023-02-11T18:34:41.634Z,8.00
2023-02-11T18:37:08.855Z,7.90
2023-02-11T18:39:37.171Z,7.90
2023-02-11T18:42:04.337Z,7.90
2023-02-11T18:44:31.355Z,7.80
2023-02-11T18:46:58.278Z,7.80
2023-02-11T18:49:25.180Z,7.80
2023-02-11T18:51:52.147Z,7.70
2023-02-11T18:54:19.161Z,7.80
2023-02-11T18:56:47.357Z,7.80
2023-02-11T18:59:14.181Z,7.80
2023-02-11T19:01:43.333Z,7.80
2023-02-11T19:04:10.373Z,7.80
2023-02-11T19:06:37.891Z,7.80
2023-02-11T19:09:06.718Z,7.70
2023-02-11T19:11:53.915Z,7.70
2023-02-11T19:14:24.297Z,7.80
2023-02-11T19:16:53.338Z,7.80
2023-02-11T19:19:23.165Z,7.80
2023-02-11T19:21:51.274Z,7.90
2023-02-11T19:24:21.535Z,8.00
2023-02-11T19:26:49.617Z,7.90
2023-02-11T19:29:17.033Z,7.90
2023-02-11T19:31:46.160Z,7.90
2023-02-11T19:34:14.648Z,7.90
2023-02-11T19:36:41.745Z,7.90
2023-02-11T19:39:09.063Z,7.90
2023-02-11T19:41:36.407Z,8.00
2023-02-11T19:44:04.758Z,8.00
2023-02-11T19:46:34.474Z,8.00
2023-02-11T19:49:03.771Z,8.00
2023-02-11T19:51:33.489Z,8.00
2023-02-11T19:54:01.003Z,8.10
2023-02-11T19:56:31.147Z,8.10
2023-02-11T19:58:58.121Z,8.10
2023-02-11T20:01:26.120Z,8.10
2023-02-11T20:03:54.680Z,8.20
2023-02-11T20:06:25.576Z,8.20
2023-02-11T20:08:57.189Z,8.20
2023-02-11T20:11:26.895Z,8.10
2023-02-11T20:13:53.834Z,8.10
2023-02-11T20:16:22.069Z,8.10
2023-02-11T20:18:50.022Z,8.00
2023-02-11T20:21:18.674Z,7.90
2023-02-11T20:23:47.894Z,7.90
2023-02-11T20:26:17.442Z,7.90
2023-02-11T20:28:44.955Z,7.90
2023-02-11T20:31:12.753Z,7.90
2023-02-11T20:33:40.784Z,7.90
2023-02-11T20:36:09.340Z,7.90
2023-02-11T20:38:36.290Z,7.90
2023-02-11T20:41:06.219Z,7.90
2023-02-11T20:43:34.022Z,7.90
2023-02-11T20:46:03.357Z,7.90
2023-02-11T20:48:30.601Z,7.80
2023-02-11T20:51:02.941Z,7.80
2023-02-11T20:53:29.919Z,7.80
2023-02-11T20:55:56.887Z,7.80
2023-02-11T20:58:25.158Z,7.90
2023-02-11T21:00:52.002Z,7.90
2023-02-11T21:03:18.993Z,7.90
2023-02-11T21:05:45.910Z,8.00
2023-02-11T21:08:12.892Z,8.00
2023-02-11T21:10:39.869Z,8.00
2023-02-11T21:13:06.880Z,8.00
2023-02-11T21:15:35.132Z,8.10
2023-02-11T21:18:01.986Z,8.10
2023-02-11T21:20:28.892Z,8.00
2023-02-11T21:22:56.053Z,8.10
2023-02-11T21:25:22.899Z,8.10
2023-02-11T21:27:49.736Z,8.20
2023-02-11T21:30:17.432Z,8.20
2023-02-11T21:32:45.693Z,8.20
2023-02-11T21:35:12.586Z,8.30
2023-02-11T21:37:39.411Z,8.30
2023-02-11T21:40:07.805Z,8.30
2023-02-11T21:42:35.560Z,8.30
2023-02-11T21:45:02.519Z,8.30
2023-02-11T21:47:29.742Z,8.40
2023-02-11T21:49:58.076Z,8.40
2023-02-11T21:52:25.066Z,8.40
2023-02-11T21:54:52.007Z,8.40
2023-02-11T21:57:18.932Z,8.40
2023-02-11T21:59:45.892Z,8.40
2023-02-11T22:02:12.732Z,8.50
2023-02-11T22:04:39.706Z,8.50
2023-02-11T22:07:07.922Z,8.50
2023-02-11T22:09:34.716Z,8.50
2023-02-11T22:12:01.607Z,8.50
2023-02-11T22:14:30.138Z,8.50
2023-02-11T22:16:58.852Z,8.50
2023-02-11T22:19:25.790Z,8.50
2023-02-11T22:21:52.700Z,8.50
2023-02-11T22:24:20.960Z,8.50
2023-02-11T22:26:47.860Z,8.50
2023-02-11T22:29:14.728Z,8.50
2023-02-11T22:31:41.746Z,8.50
2023-02-11T22:34:08.849Z,8.50
2023-02-11T22:36:38.876Z,8.50
2023-02-11T22:39:08.148Z,8.40
2023-02-11T22:41:38.286Z,8.40
2023-02-11T22:44:05.392Z,8.40
2023-02-11T22:46:32.566Z,8.40
2023-02-11T22:48:59.455Z,8.30
2023-02-11T22:51:27.943Z,8.30
2023-02-11T22:53:56.568Z,8.30
2023-02-11T22:56:24.372Z,8.20
2023-02-11T22:58:53.663Z,8.20
2023-02-11T23:01:20.914Z,8.20
2023-02-11T23:03:47.848Z,8.20
2023-02-11T23:06:15.175Z,8.10
2023-02-11T23:08:43.237Z,8.10
2023-02-11T23:11:11.914Z,8.10
2023-02-11T23:13:40.437Z,8.10
2023-02-11T23:16:10.900Z,8.10
2023-02-11T23:18:39.922Z,8.10
2023-02-11T23:21:12.411Z,8.00
2023-02-11T23:23:39.653Z,8.00
2023-02-11T23:26:09.479Z,7.90
2023-02-11T23:28:36.585Z,7.90
2023-02-11T23:31:15.091Z,7.90
2023-02-11T23:33:42.072Z,7.90
2023-02-11T23:36:09.677Z,7.90
2023-02-11T23:38:36.610Z,7.90
2023-02-11T23:41:03.779Z,7.80
2023-02-11T23:43:31.008Z,7.80
2023-02-11T23:45:58.315Z,7.80
2023-02-11T23:48:26.958Z,7.80
2023-02-11T23:50:53.992Z,7.90
2023-02-11T23:53:20.845Z,7.80
2023-02-11T23:55:47.750Z,7.80
2023-02-11T23:58:15.365Z,7.80
